Foresthill, Pennsylvania
Current Conditions -  °F | °C
As of 6:53 PM on Wednesday 22 Oct 2014 (Local Time) from KSEG Reporting Station
Overcast Overcast  
Wind Chill: 52°   Ceiling: 2500
Heat Index: 52°   Visibility: 10mi
Dew Point: 43°   Wind: 14mph
Humidity: 71%   Direction: 340°NNW
Pressure: 30.02"   Gusts: 24mph
Location:  40.9428°N, 77.0748°W
Report Text: KSEG 222253Z AUTO 34012G21KT 10SM OVC025 11/06 A3002 RMK AO2 SLP165 T01110061
Loading
Personal Weather Stations






























Interactive Weather Map
Tropical Storm Tracking
New forecast layout! Learn more

10-Day Weather Forecast

Advertisements
Track Severe Weather on mobile